Hlavní strana
METAR-TAF:

METAR-TAF

Letiště :

Torsby, Švédsko

zeměpisná šířka: 60-09-17N, zeměpisná délka: 12-59-40E, výška: 120 m

Aktuální stav počasí

Zpráva byla vytvořena před 1 hodinou a 5 minutami, v 11:20 UTC
Východojihovýchodní vítr 8 kt, proměnlivý mezi východoseverovýchodním a jihojihovýchodním
Teplota 19°C
Vlhkost vzduchu 30%
Tlak 1002 hPa
Viditelnost 10 km a více

METAR: ESST 041120Z AUTO 11008KT 060V160 9999 NCD 19/01 Q1002

Čas: 14:25 (12:25 UTC)


TAF: chybějící

Stav a předpovědi počasí z více než 4 000 letišť (zprávy METAR a TAF).

Červené a žluté tečky na mapě představují dostupné meteorologické stanice.

Když kurzor umístíte na tečku, zobrazí se název stanice.

Pak kliknutím zobrazíte stav a předpověď počasí.

Chcete-li změnit mapu, kliknutím na zelené tlačítko se znaménkem +mapu přiblížíte, kliknutím na zelené tlačítko se znaménkem – mapu oddálíte a kliknutím na zelené šipky přejdete na sousední mapy.


METAR-TAF: